createdAt,value
2017-09-08T02:47:29.200Z,67.21
2017-09-08T03:29:47.436Z,67.85
2017-09-08T03:57:24.072Z,68.86
2017-09-08T04:21:16.681Z,69.18
2017-09-08T04:24:25.775Z,69.57
2017-09-08T04:27:29.233Z,68.80
2017-09-08T04:40:46.241Z,68.55
2017-09-08T04:50:41.632Z,67.81
2017-09-08T05:00:01.777Z,69.06
2017-09-08T05:06:21.823Z,69.27
2017-09-08T05:18:14.768Z,69.17
2017-09-08T05:49:09.658Z,70.22
2017-09-08T05:51:58.957Z,69.47
2017-09-08T05:55:08.362Z,70.47
2017-09-08T05:58:32.350Z,71.12
2017-09-08T06:04:17.245Z,70.53
2017-09-08T06:09:46.025Z,70.32
2017-09-08T06:12:19.257Z,69.69
2017-09-08T06:15:08.438Z,68.09
2017-09-08T06:18:06.933Z,68.04
2017-09-08T06:27:47.953Z,68.41
2017-09-08T06:38:14.308Z,69.47
2017-09-08T06:41:12.293Z,68.32
2017-09-08T06:47:30.053Z,69.24
2017-09-08T06:50:09.313Z,68.25
2017-09-08T07:09:10.135Z,70.12
2017-09-08T07:11:58.483Z,70.22
2017-09-08T07:19:47.864Z,70.03
2017-09-08T07:39:24.817Z,69.00
2017-09-08T07:48:29.442Z,70.05
2017-09-08T07:56:30.745Z,68.07
2017-09-08T08:40:55.338Z,67.30
2017-09-08T10:23:01.242Z,67.24
2017-09-08T10:25:44.654Z,66.90
2017-09-08T10:52:31.508Z,67.14
2017-09-08T10:59:05.156Z,66.13
2017-09-08T11:02:30.157Z,68.41
2017-09-08T11:08:39.552Z,68.61
2017-09-08T11:14:14.750Z,67.26
2017-09-08T11:20:37.072Z,67.94
2017-09-08T11:28:32.385Z,67.74
2017-09-08T12:03:01.020Z,67.23
2017-09-08T12:05:58.294Z,66.19
2017-09-08T12:08:42.471Z,65.44
2017-09-08T12:18:42.679Z,64.52
2017-09-08T12:21:26.494Z,64.59
2017-09-08T12:24:32.360Z,65.67
2017-09-08T12:41:10.280Z,62.73
2017-09-08T12:54:33.532Z,62.96
2017-09-08T13:00:55.828Z,63.05
2017-09-08T13:07:02.349Z,63.94
2017-09-08T13:59:38.072Z,50.83
2017-09-08T14:02:08.074Z,53.83
2017-09-08T14:04:37.714Z,54.47
2017-09-08T14:07:11.662Z,56.58
2017-09-08T14:09:41.486Z,58.53
2017-09-08T14:14:42.492Z,63.39
2017-09-08T14:17:14.261Z,64.15
2017-09-08T14:19:45.276Z,66.05
2017-09-08T14:22:16.364Z,66.91
2017-09-08T14:24:47.756Z,67.78
2017-09-08T14:27:17.675Z,68.21
2017-09-08T14:29:47.058Z,67.96
2017-09-08T14:32:16.969Z,69.63
2017-09-08T14:34:47.553Z,70.14
2017-09-08T14:37:17.868Z,69.84
2017-09-08T14:39:47.268Z,70.99
2017-09-08T14:42:20.355Z,71.70
2017-09-08T14:44:50.256Z,70.61
2017-09-08T14:47:20.516Z,71.26
2017-09-08T14:49:49.904Z,72.72
2017-09-08T14:52:19.637Z,72.17
2017-09-08T14:54:49.533Z,71.94
2017-09-08T14:57:19.261Z,72.20
2017-09-08T14:59:49.567Z,72.27
2017-09-08T15:02:19.315Z,71.83
2017-09-08T15:04:48.820Z,71.82
2017-09-08T15:07:18.508Z,72.25
2017-09-08T15:09:50.207Z,72.58
2017-09-08T15:12:19.717Z,72.87
2017-09-08T15:14:49.449Z,72.49
2017-09-08T15:17:18.918Z,73.88
2017-09-08T15:19:48.667Z,73.83
2017-09-08T15:22:18.206Z,73.54
2017-09-08T15:24:47.703Z,73.51
2017-09-08T15:27:17.164Z,73.72
2017-09-08T15:29:48.200Z,74.02
2017-09-08T15:32:18.541Z,73.74
2017-09-08T15:34:49.127Z,74.04
2017-09-08T15:37:19.042Z,74.08
2017-09-08T15:39:50.641Z,73.91
2017-09-08T15:42:21.030Z,73.71
2017-09-08T15:44:50.465Z,74.17
2017-09-08T15:47:19.877Z,74.81
2017-09-08T15:49:49.577Z,73.67
2017-09-08T15:52:20.905Z,74.47
2017-09-08T15:54:50.473Z,73.81
2017-09-08T15:57:19.943Z,72.02
2017-09-08T15:59:49.561Z,72.39
2017-09-08T16:02:19.466Z,72.59
2017-09-08T16:04:49.821Z,71.96
2017-09-08T16:07:19.452Z,72.69
2017-09-08T16:09:49.188Z,72.54
2017-09-08T16:12:18.626Z,73.67
2017-09-08T16:14:48.023Z,73.80
2017-09-08T16:17:17.784Z,74.26
2017-09-08T16:19:47.521Z,73.43
2017-09-08T16:22:16.986Z,73.35
2017-09-08T16:24:46.566Z,72.48
2017-09-08T16:27:16.274Z,72.57
2017-09-08T16:29:47.237Z,73.45
2017-09-08T16:32:16.672Z,74.21
2017-09-08T16:34:46.195Z,74.01
2017-09-08T16:37:16.133Z,73.73
2017-09-08T16:39:45.966Z,74.20
2017-09-08T16:42:15.378Z,75.88
2017-09-08T16:44:44.849Z,74.87
2017-09-08T16:47:14.317Z,73.80
2017-09-08T16:49:44.056Z,74.13
2017-09-08T16:52:15.434Z,74.28
2017-09-08T16:54:45.028Z,73.74
2017-09-08T16:57:14.624Z,72.86
2017-09-08T16:59:44.242Z,72.53
2017-09-08T17:02:13.918Z,73.19
2017-09-08T17:04:43.397Z,73.16
2017-09-08T17:07:12.896Z,73.18
2017-09-08T17:09:42.923Z,72.62
2017-09-08T17:12:12.464Z,72.29
2017-09-08T17:14:42.675Z,73.47
2017-09-08T17:17:12.065Z,73.71
2017-09-08T17:19:41.449Z,73.16
2017-09-08T17:22:10.869Z,71.72
2017-09-08T17:24:40.617Z,72.33
2017-09-08T17:27:10.366Z,72.65
2017-09-08T17:29:39.882Z,74.48
2017-09-08T17:32:09.320Z,74.83
2017-09-08T17:34:38.846Z,74.44
2017-09-08T17:37:09.560Z,73.29
2017-09-08T17:39:38.972Z,72.02
2017-09-08T17:44:41.765Z,73.92
2017-09-08T17:47:11.223Z,73.69
2017-09-08T17:49:41.128Z,73.71
2017-09-08T17:52:10.517Z,74.06
2017-09-08T17:54:39.898Z,74.38
2017-09-08T17:57:09.432Z,75.38
2017-09-08T17:59:40.907Z,74.19
2017-09-08T18:02:10.445Z,73.71
2017-09-08T18:04:40.341Z,73.99
2017-09-08T18:07:10.121Z,73.52
2017-09-08T18:09:40.473Z,74.58
2017-09-08T18:12:10.282Z,73.84
2017-09-08T18:14:40.146Z,72.64
2017-09-08T18:17:10.098Z,73.92
2017-09-08T18:19:39.580Z,73.24
2017-09-08T18:22:09.552Z,73.01
2017-09-08T18:24:39.063Z,73.62
2017-09-08T18:27:09.225Z,72.25
2017-09-08T18:29:38.898Z,71.78
2017-09-08T18:32:08.589Z,71.45
2017-09-08T18:34:38.168Z,71.14
2017-09-08T18:37:08.529Z,70.29
2017-09-08T18:39:40.719Z,73.25
2017-09-08T18:42:10.558Z,73.35
2017-09-08T18:44:40.470Z,72.66
2017-09-08T18:47:10.068Z,71.71
2017-09-08T18:49:41.380Z,71.93
2017-09-08T18:52:11.319Z,72.54
2017-09-08T18:54:42.651Z,71.30
2017-09-08T18:57:25.302Z,71.19
2017-09-08T19:08:06.162Z,72.17
2017-09-08T19:10:35.653Z,74.59
2017-09-08T19:13:06.888Z,74.82
2017-09-08T19:15:37.335Z,73.89
2017-09-08T19:18:08.418Z,73.18
2017-09-08T19:20:38.236Z,72.39
2017-09-08T19:23:10.176Z,72.13
2017-09-08T19:25:39.669Z,71.80
2017-09-08T19:28:09.273Z,71.64
2017-09-08T19:30:38.842Z,72.83
2017-09-08T19:33:08.734Z,73.16
2017-09-08T19:35:38.104Z,73.55
2017-09-08T19:38:08.060Z,73.40
2017-09-08T19:40:37.800Z,73.24
2017-09-08T19:43:08.509Z,73.05
2017-09-08T19:45:37.905Z,73.01
2017-09-08T19:48:08.361Z,72.55
2017-09-08T19:50:37.837Z,71.33
2017-09-08T19:53:07.714Z,71.59
2017-09-08T19:55:37.221Z,71.94
2017-09-08T19:58:07.105Z,71.82
2017-09-08T20:00:36.527Z,71.21
2017-09-08T20:03:10.024Z,71.26
2017-09-08T20:05:39.545Z,71.69
2017-09-08T20:08:09.081Z,71.51
2017-09-08T20:10:38.465Z,72.58
2017-09-08T20:13:09.132Z,72.45
2017-09-08T20:15:39.014Z,72.88
2017-09-08T20:18:08.740Z,71.01
2017-09-08T20:20:38.250Z,70.03
2017-09-08T20:23:07.781Z,70.06
2017-09-08T20:25:37.460Z,70.45
2017-09-08T20:28:09.234Z,71.01
2017-09-08T20:30:42.600Z,71.58
2017-09-08T20:33:13.088Z,72.64
2017-09-08T20:35:43.354Z,71.63
2017-09-08T20:38:14.339Z,70.94
2017-09-08T20:40:44.321Z,69.76
2017-09-08T20:43:13.702Z,69.09
2017-09-08T20:45:44.127Z,68.94
2017-09-08T20:48:14.093Z,70.79
2017-09-08T20:50:43.917Z,69.39
2017-09-08T20:53:13.377Z,70.23
2017-09-08T20:55:43.317Z,70.03
2017-09-08T20:58:13.029Z,70.44
2017-09-08T21:00:44.418Z,70.16
2017-09-08T21:03:15.005Z,69.39
2017-09-08T21:05:45.621Z,70.79
2017-09-08T21:08:15.197Z,71.38
2017-09-08T21:10:45.846Z,70.71
2017-09-08T21:13:15.266Z,71.39
2017-09-08T21:15:44.718Z,70.81
2017-09-08T21:18:14.232Z,71.70
2017-09-08T21:20:44.212Z,72.56
2017-09-08T21:23:14.541Z,72.33
2017-09-08T21:25:44.373Z,72.38
2017-09-08T21:28:16.230Z,73.07
2017-09-08T21:30:46.174Z,72.31
2017-09-08T21:33:17.681Z,71.55
2017-09-08T21:35:47.697Z,71.32
2017-09-08T21:38:17.161Z,71.68
2017-09-08T21:40:47.320Z,71.64
2017-09-08T21:43:17.065Z,71.48
2017-09-08T21:45:46.529Z,71.42
2017-09-08T21:48:16.408Z,70.60
2017-09-08T21:50:46.365Z,71.13
2017-09-08T21:53:16.058Z,72.23
2017-09-08T21:55:47.272Z,71.71
2017-09-08T21:58:17.717Z,71.46
2017-09-08T22:00:47.353Z,71.26
2017-09-08T22:03:17.012Z,72.24
2017-09-08T22:05:46.390Z,72.75
2017-09-08T22:08:15.784Z,72.31
2017-09-08T22:10:45.856Z,71.31
2017-09-08T22:13:15.569Z,72.15
2017-09-08T22:15:44.948Z,71.86
2017-09-08T22:18:14.333Z,71.14
2017-09-08T22:20:43.773Z,71.66
2017-09-08T22:23:13.562Z,70.69
2017-09-08T22:25:43.337Z,71.33
2017-09-08T22:28:13.037Z,71.08
2017-09-08T22:30:43.436Z,71.43
2017-09-08T22:33:13.405Z,71.60
2017-09-08T22:35:42.812Z,71.41
2017-09-08T22:38:12.682Z,70.73
2017-09-08T22:40:42.365Z,69.94
2017-09-08T22:43:11.811Z,69.84
2017-09-08T22:45:42.222Z,70.07
2017-09-08T22:48:12.749Z,69.93
2017-09-08T22:50:43.037Z,72.64
2017-09-08T22:53:12.561Z,73.14
2017-09-08T22:55:44.026Z,73.76
2017-09-08T22:58:13.521Z,73.80
2017-09-08T23:00:43.041Z,73.34
2017-09-08T23:03:12.855Z,72.99
2017-09-08T23:05:42.317Z,72.36
2017-09-08T23:08:11.936Z,71.96
2017-09-08T23:10:41.797Z,72.27
2017-09-08T23:13:11.157Z,72.15
2017-09-08T23:15:40.593Z,73.26
2017-09-08T23:18:10.713Z,72.01
2017-09-08T23:20:40.125Z,71.80
2017-09-08T23:23:09.621Z,71.59
2017-09-08T23:25:39.220Z,72.31
2017-09-08T23:28:08.612Z,72.18
2017-09-08T23:30:38.025Z,72.68
2017-09-08T23:33:07.411Z,71.58
2017-09-08T23:35:36.914Z,71.93
2017-09-08T23:38:08.225Z,71.77
2017-09-08T23:40:37.608Z,71.49
2017-09-08T23:43:07.173Z,71.48
2017-09-08T23:45:38.048Z,72.50
2017-09-08T23:48:07.600Z,72.94
2017-09-08T23:50:36.998Z,72.25
2017-09-08T23:53:06.580Z,72.42
2017-09-08T23:55:35.946Z,72.72
2017-09-08T23:58:05.462Z,73.27
